Saint-Charles-Sur-Richelieu, Canada
Current Conditions -  °F | °C
As of 8:00 AM on Saturday 25 Oct 2014 (Local Time) from CYHU Reporting Station
Clear Clear  
Wind Chill: 37°   Ceiling: Unl
Heat Index: 43°   Visibility: 9mi
Dew Point: 39°   Wind: 9mph
Humidity: 87%   Direction: 230°SW
Pressure: 29.73"   Gusts: NA
Location:  45.68°N, 73.18°W
Report Text: CYHU 251200Z AUTO 23008KT 9SM CLR 06/04 A2973 RMK SLP067
Loading
Personal Weather Stations






























Interactive Weather Map New forecast layout! Learn more

10-Day Weather Forecast

Advertisements
Track Severe Weather on mobile